Time;durP1;ratioP1;P1;durP2;ratioP2;P2;SDS_P1;SDS_P2;PMS_P1;PMS_P2;Temp;Humidity;BMP_temperature;BMP_pressure;BME280_temperature;BME280_humidity;BME280_pressure;Samples;Min_cycle;Max_cycle;Signal;HPM_P1;HPM_P2
2022/12/28 05:00:52;;;;;;;6.73;4.90;;;3.10;99.90;;;;;;5757109;23;20500;-73
2022/12/28 05:03:19;;;;;;;7.60;5.30;;;3.20;99.90;;;;;;4967373;28;20487;-73
2022/12/28 05:05:46;;;;;;;8.17;4.93;;;3.20;99.90;;;;;;4967868;28;20460;-73
2022/12/28 05:08:13;;;;;;;9.53;5.87;;;3.20;99.90;;;;;;4966890;28;20857;-73
2022/12/28 05:10:39;;;;;;;8.60;5.27;;;3.10;99.90;;;;;;4967166;28;20768;-73
2022/12/28 05:13:06;;;;;;;8.47;5.03;;;3.20;99.90;;;;;;4967399;28;20459;-73
2022/12/28 05:15:33;;;;;;;5.77;4.77;;;3.10;99.90;;;;;;4961458;28;20481;-73
2022/12/28 05:18:01;;;;;;;5.60;4.50;;;3.20;99.90;;;;;;4956638;28;20452;-73
2022/12/28 05:20:28;;;;;;;7.73;4.43;;;3.30;99.90;;;;;;4957832;28;20452;-73
2022/12/28 05:22:55;;;;;;;7.37;4.00;;;3.30;99.90;;;;;;4967374;28;21169;-73
2022/12/28 05:25:21;;;;;;;5.43;3.70;;;3.40;99.90;;;;;;4966354;28;20464;-73
2022/12/28 05:27:48;;;;;;;8.47;4.80;;;3.40;99.90;;;;;;4966415;28;20499;-73
2022/12/28 05:30:15;;;;;;;7.13;4.50;;;3.50;99.90;;;;;;4966320;28;20464;-73
2022/12/28 05:32:42;;;;;;;4.90;4.00;;;3.50;99.90;;;;;;4966722;28;20932;-73
2022/12/28 05:35:10;;;;;;;5.67;4.17;;;3.50;99.90;;;;;;4967292;28;20456;-74
2022/12/28 05:37:37;;;;;;;7.57;5.37;;;3.50;99.90;;;;;;4966419;28;20448;-73
2022/12/28 05:40:05;;;;;;;6.17;4.27;;;3.60;99.90;;;;;;4957625;28;20963;-73
2022/12/28 05:42:32;;;;;;;7.50;3.50;;;3.60;99.90;;;;;;4956216;28;20470;-73
2022/12/28 05:44:58;;;;;;;5.90;3.53;;;3.60;99.90;;;;;;4955081;28;20461;-73
2022/12/28 05:47:25;;;;;;;6.53;4.07;;;3.70;99.90;;;;;;4955995;28;20481;-73
2022/12/28 05:49:52;;;;;;;7.07;4.70;;;3.70;99.90;;;;;;4957009;28;20476;-73
2022/12/28 05:52:20;;;;;;;5.30;4.20;;;3.70;99.90;;;;;;4956060;28;20460;-74
2022/12/28 05:54:47;;;;;;;6.47;3.93;;;3.80;99.90;;;;;;4956631;28;20457;-73
2022/12/28 05:57:13;;;;;;;5.53;4.40;;;3.80;99.90;;;;;;4954290;28;20523;-73
2022/12/28 05:59:40;;;;;;;6.43;3.90;;;3.80;99.90;;;;;;4956401;28;20445;-74
2022/12/28 06:02:07;;;;;;;6.47;4.20;;;3.80;99.90;;;;;;4953977;28;20879;-73
2022/12/28 06:04:34;;;;;;;4.40;3.90;;;3.80;99.90;;;;;;4956230;28;20816;-73
2022/12/28 06:07:00;;;;;;;5.90;3.63;;;3.80;99.90;;;;;;4953427;28;21084;-73
2022/12/28 06:09:29;;;;;;;3.90;3.50;;;3.90;99.90;;;;;;4947327;28;20460;-73
2022/12/28 06:11:55;;;;;;;3.00;2.70;;;3.90;99.90;;;;;;4947269;28;20481;-74
2022/12/28 06:14:22;;;;;;;3.53;3.17;;;3.90;99.90;;;;;;4947658;28;20454;-73
2022/12/28 06:16:50;;;;;;;3.90;3.33;;;3.90;99.90;;;;;;4946903;28;20465;-73
2022/12/28 06:19:17;;;;;;;3.70;2.67;;;3.90;99.90;;;;;;4947424;28;20933;-73
2022/12/28 06:21:44;;;;;;;5.77;2.53;;;3.90;99.90;;;;;;4952196;28;20473;-73
2022/12/28 06:24:12;;;;;;;3.07;2.53;;;3.90;99.90;;;;;;4947512;29;20460;-73
2022/12/28 06:26:41;;;;;;;4.57;2.80;;;4.00;99.90;;;;;;4946563;29;20547;-73
2022/12/28 06:29:08;;;;;;;4.33;2.77;;;3.90;99.90;;;;;;4947552;28;20453;-73
2022/12/28 06:31:36;;;;;;;5.07;3.00;;;3.90;99.90;;;;;;4946038;29;20477;-73
2022/12/28 06:34:05;;;;;;;3.77;2.43;;;4.00;99.90;;;;;;4947491;29;20449;-73
2022/12/28 06:36:34;;;;;;;2.73;2.50;;;4.00;99.90;;;;;;4949640;28;20468;-73
2022/12/28 06:39:02;;;;;;;7.43;3.00;;;4.10;99.90;;;;;;4951134;29;20450;-73
2022/12/28 06:41:29;;;;;;;4.50;2.63;;;4.00;99.90;;;;;;4951240;29;20472;-73
2022/12/28 06:43:58;;;;;;;3.03;2.77;;;4.10;99.90;;;;;;4951120;29;20464;-73
2022/12/28 06:46:27;;;;;;;5.23;3.17;;;4.10;99.90;;;;;;4950507;29;20461;-73
2022/12/28 06:48:54;;;;;;;7.00;2.77;;;4.20;99.90;;;;;;4950802;29;20623;-74
2022/12/28 06:51:24;;;;;;;4.60;3.00;;;4.20;99.90;;;;;;4950685;28;20487;-74
2022/12/28 06:53:51;;;;;;;2.80;2.17;;;4.20;99.90;;;;;;4950893;29;20446;-74
2022/12/28 06:56:20;;;;;;;4.33;2.30;;;4.30;99.90;;;;;;4950399;28;20465;-74
2022/12/28 06:58:49;;;;;;;3.90;2.70;;;4.30;99.90;;;;;;4950715;29;20972;-73
2022/12/28 07:01:19;;;;;;;3.20;2.60;;;4.30;99.90;;;;;;4954578;28;20491;-74
2022/12/28 07:03:47;;;;;;;6.20;2.67;;;4.40;99.90;;;;;;4969347;28;20467;-73
2022/12/28 07:06:16;;;;;;;4.70;2.57;;;4.40;99.90;;;;;;4968862;28;20461;-73
2022/12/28 07:08:44;;;;;;;4.03;2.57;;;4.50;99.90;;;;;;4969530;28;20496;-74
2022/12/28 07:11:12;;;;;;;3.50;3.20;;;4.50;99.90;;;;;;4968935;28;20476;-74
2022/12/28 07:13:39;;;;;;;1.93;1.70;;;4.50;99.90;;;;;;4969588;28;20456;-70
2022/12/28 07:16:08;;;;;;;6.07;3.23;;;4.60;99.90;;;;;;4963248;28;20445;-70
2022/12/28 07:18:36;;;;;;;3.07;2.07;;;4.60;99.90;;;;;;4969387;28;21159;-70
2022/12/28 07:21:05;;;;;;;2.30;1.83;;;4.70;99.90;;;;;;4969923;28;20472;-70
2022/12/28 07:23:33;;;;;;;9.03;2.13;;;4.80;99.90;;;;;;4969759;28;20456;-70
2022/12/28 07:26:05;;;;;;;5.30;1.73;;;4.90;99.90;;;;;;4968528;28;20456;-70
2022/12/28 07:28:32;;;;;;;5.13;1.97;;;5.00;99.90;;;;;;4968816;28;20492;-70
2022/12/28 07:30:59;;;;;;;3.47;1.80;;;5.00;99.90;;;;;;4969733;28;20472;-70
2022/12/28 07:33:25;;;;;;;2.57;2.13;;;5.10;99.90;;;;;;4969658;28;20457;-70
2022/12/28 07:35:53;;;;;;;2.27;1.47;;;5.20;99.90;;;;;;4969443;28;20455;-72
2022/12/28 07:38:20;;;;;;;1.43;1.33;;;5.30;99.90;;;;;;4969623;28;20956;-70
2022/12/28 07:40:47;;;;;;;5.13;1.93;;;5.40;99.90;;;;;;4969546;28;20845;-70
2022/12/28 07:43:14;;;;;;;1.40;1.30;;;5.50;99.90;;;;;;4969363;28;20467;-70
2022/12/28 07:45:40;;;;;;;2.40;1.47;;;5.60;99.90;;;;;;4969538;28;20448;-69
2022/12/28 07:48:07;;;;;;;6.90;1.83;;;5.70;99.90;;;;;;4967435;28;20497;-69
2022/12/28 07:50:34;;;;;;;2.70;1.60;;;5.70;99.90;;;;;;4969085;28;20487;-69
2022/12/28 07:53:02;;;;;;;2.23;1.93;;;5.80;99.90;;;;;;4969258;28;20456;-69
2022/12/28 07:55:30;;;;;;;3.72;1.70;;;5.80;99.90;;;;;;4969277;28;20446;-69
2022/12/28 07:57:57;;;;;;;2.93;1.80;;;6.00;99.90;;;;;;4968550;28;21071;-69
2022/12/28 08:00:24;;;;;;;1.50;1.40;;;6.00;99.90;;;;;;4968575;28;20894;-70
2022/12/28 08:02:51;;;;;;;2.10;1.30;;;6.10;99.90;;;;;;4969305;28;20833;-69
2022/12/28 08:05:17;;;;;;;2.40;1.40;;;6.10;99.90;;;;;;4968787;28;20949;-69
2022/12/28 08:07:44;;;;;;;2.30;1.50;;;6.10;99.90;;;;;;4968101;28;20845;-69
2022/12/28 08:10:12;;;;;;;1.83;1.33;;;6.20;99.90;;;;;;4968997;28;20463;-70
2022/12/28 08:12:39;;;;;;;5.17;1.80;;;6.30;99.90;;;;;;4968910;28;20497;-69
2022/12/28 08:15:07;;;;;;;2.63;1.30;;;6.30;99.90;;;;;;4968960;28;20453;-70
2022/12/28 08:17:33;;;;;;;2.90;1.63;;;6.40;99.90;;;;;;4968113;28;20460;-70
2022/12/28 08:20:00;;;;;;;1.47;1.20;;;6.40;99.90;;;;;;4968956;28;20452;-70
2022/12/28 08:22:27;;;;;;;1.53;1.37;;;6.50;99.90;;;;;;4969005;28;20491;-69
2022/12/28 08:24:54;;;;;;;1.40;1.30;;;6.50;99.90;;;;;;4968810;28;20457;-69
2022/12/28 08:27:22;;;;;;;1.37;1.27;;;6.50;99.90;;;;;;4966445;28;20457;-69
2022/12/28 08:29:49;;;;;;;4.83;1.60;;;6.60;99.90;;;;;;4969053;28;20456;-69
2022/12/28 08:32:15;;;;;;;6.90;1.63;;;6.60;99.90;;;;;;4968815;28;20481;-71
2022/12/28 08:34:42;;;;;;;2.40;1.50;;;6.70;99.90;;;;;;4968816;28;20545;-70
2022/12/28 08:37:09;;;;;;;1.53;1.27;;;6.70;99.90;;;;;;4968026;28;20468;-69
2022/12/28 08:39:36;;;;;;;1.80;1.27;;;6.80;99.90;;;;;;4968450;28;20460;-70
2022/12/28 08:42:02;;;;;;;3.57;1.70;;;6.80;99.90;;;;;;4968106;28;20480;-70
2022/12/28 08:44:30;;;;;;;2.40;1.40;;;6.80;99.90;;;;;;4968246;28;20460;-70
2022/12/28 08:46:57;;;;;;;3.23;1.57;;;6.90;99.90;;;;;;4968126;28;20468;-70
2022/12/28 08:49:24;;;;;;;2.37;1.30;;;6.90;99.90;;;;;;4968175;28;20499;-70
2022/12/28 08:51:51;;;;;;;2.80;1.50;;;7.00;99.90;;;;;;4968511;28;20479;-70
2022/12/28 08:54:18;;;;;;;2.40;1.87;;;7.00;99.90;;;;;;4968182;28;20470;-70
2022/12/28 08:56:45;;;;;;;1.73;1.60;;;7.10;99.90;;;;;;4967498;28;20452;-69
2022/12/28 08:59:14;;;;;;;2.00;1.40;;;7.10;99.90;;;;;;4968177;28;20452;-69
2022/12/28 09:01:46;;;;;;;2.57;1.70;;;7.10;99.90;;;;;;4967600;28;20516;-70
2022/12/28 09:04:18;;;;;;;1.40;1.30;;;7.10;99.90;;;;;;4967701;28;20444;-69
2022/12/28 09:17:20;;;;;;;4.30;2.50;;;7.30;99.90;;;;;;4966948;28;20459;-69
2022/12/28 09:19:47;;;;;;;3.60;1.57;;;7.30;99.90;;;;;;4966702;28;20461;-69
2022/12/28 09:22:14;;;;;;;3.80;1.83;;;7.40;99.90;;;;;;4967515;28;20475;-69
2022/12/28 09:24:41;;;;;;;3.33;1.83;;;7.40;99.90;;;;;;4967678;28;20461;-69
2022/12/28 09:27:08;;;;;;;3.30;1.50;;;7.40;99.90;;;;;;4966872;28;20460;-69
2022/12/28 09:29:34;;;;;;;4.10;2.17;;;7.50;99.90;;;;;;4967129;28;20504;-69
2022/12/28 09:32:01;;;;;;;2.37;1.67;;;7.60;99.90;;;;;;4966991;28;20858;-69
2022/12/28 09:34:30;;;;;;;5.33;2.17;;;7.60;99.90;;;;;;4967596;28;20487;-69
2022/12/28 09:36:57;;;;;;;3.53;2.37;;;7.70;99.90;;;;;;4966917;28;20464;-69
2022/12/28 09:39:24;;;;;;;4.53;1.80;;;7.60;99.90;;;;;;4967120;28;20460;-69
2022/12/28 09:41:54;;;;;;;5.83;1.60;;;7.70;99.90;;;;;;4966829;28;20531;-69
2022/12/28 09:44:41;;;;;;;2.30;1.73;;;7.80;99.90;;;;;;4966941;28;20456;-69
2022/12/28 09:47:22;;;;;;;4.73;1.90;;;7.70;99.90;;;;;;4966167;28;20445;-69
2022/12/28 09:50:00;;;;;;;2.50;1.40;;;7.80;99.90;;;;;;4967122;28;20503;-70
2022/12/28 09:52:30;;;;;;;1.90;1.50;;;7.80;99.90;;;;;;4966987;28;20472;-70
2022/12/28 09:55:05;;;;;;;3.33;2.20;;;7.90;99.90;;;;;;4967209;28;20456;-70
2022/12/28 09:57:37;;;;;;;2.00;1.87;;;8.00;99.90;;;;;;4966291;28;20464;-70
2022/12/28 10:00:06;;;;;;;4.20;1.70;;;8.00;99.90;;;;;;4966716;28;20448;-70
2022/12/28 10:02:36;;;;;;;2.00;1.77;;;8.10;99.90;;;;;;4966525;28;20495;-70
2022/12/28 10:05:06;;;;;;;2.13;1.83;;;8.20;99.90;;;;;;4966926;28;20552;-70
2022/12/28 10:07:33;;;;;;;1.80;1.40;;;8.30;99.90;;;;;;4966091;28;21319;-70
2022/12/28 10:09:59;;;;;;;1.50;1.40;;;8.40;99.90;;;;;;4966482;28;20488;-70
2022/12/28 10:12:30;;;;;;;4.30;1.60;;;8.50;99.90;;;;;;4966517;28;20502;-70
2022/12/28 10:14:58;;;;;;;2.00;1.30;;;8.60;99.90;;;;;;4968038;28;20456;-70
2022/12/28 10:17:29;;;;;;;1.73;1.63;;;8.60;99.90;;;;;;4966056;28;20457;-70
2022/12/28 10:19:58;;;;;;;1.70;1.20;;;8.80;99.90;;;;;;4965061;28;20456;-70
2022/12/28 10:22:35;;;;;;;1.37;1.13;;;8.80;99.90;;;;;;4966775;28;20479;-70
2022/12/28 10:25:02;;;;;;;2.60;1.60;;;8.90;99.90;;;;;;4966802;28;20540;-70
2022/12/28 10:27:31;;;;;;;1.87;1.40;;;9.00;99.90;;;;;;4965811;28;20976;-70
2022/12/28 10:30:01;;;;;;;1.90;1.60;;;9.10;99.90;;;;;;4966347;28;20578;-70
2022/12/28 10:32:48;;;;;;;2.73;1.30;;;9.30;99.90;;;;;;4966011;28;20476;-70
2022/12/28 10:35:23;;;;;;;1.50;1.40;;;9.50;99.90;;;;;;4966899;28;20461;-70
2022/12/28 10:38:00;;;;;;;1.70;1.60;;;9.60;99.90;;;;;;4965875;28;20452;-70
2022/12/28 10:40:30;;;;;;;2.07;1.50;;;9.60;99.90;;;;;;4966176;28;20440;-70
2022/12/28 10:42:59;;;;;;;1.73;1.30;;;9.60;99.90;;;;;;4966186;28;20460;-70
2022/12/28 10:45:35;;;;;;;2.40;1.40;;;9.70;99.90;;;;;;4966435;28;20515;-70
2022/12/28 10:48:07;;;;;;;2.17;1.80;;;9.70;99.90;;;;;;4965915;28;20642;-70
2022/12/28 10:50:41;;;;;;;3.20;1.27;;;9.70;99.90;;;;;;4966442;28;20476;-70
2022/12/28 10:53:20;;;;;;;3.53;2.03;;;9.80;99.90;;;;;;4966432;28;20483;-71
2022/12/28 10:55:46;;;;;;;3.20;1.60;;;9.90;99.90;;;;;;4967135;28;20456;-70
2022/12/28 10:58:20;;;;;;;2.03;1.40;;;10.00;99.90;;;;;;4965776;28;20482;-70
2022/12/28 11:00:54;;;;;;;3.20;1.37;;;10.10;99.90;;;;;;4966439;28;20484;-70
2022/12/28 11:03:25;;;;;;;1.70;1.60;;;10.10;99.90;;;;;;4966361;28;20456;-70
2022/12/28 11:06:08;;;;;;;2.67;1.73;;;10.10;99.90;;;;;;4965453;28;20918;-70
2022/12/28 11:08:36;;;;;;;1.93;1.50;;;10.10;99.90;;;;;;4966590;28;20591;-70
2022/12/28 11:11:03;;;;;;;1.93;1.40;;;10.10;99.90;;;;;;4966410;28;20499;-70
2022/12/28 11:13:30;;;;;;;1.50;1.20;;;10.10;99.90;;;;;;4966177;28;20456;-70
2022/12/28 11:15:57;;;;;;;1.93;1.50;;;10.20;99.90;;;;;;4965747;28;20456;-70
2022/12/28 11:18:23;;;;;;;3.37;1.60;;;10.30;99.90;;;;;;4964465;28;20479;-70
2022/12/28 11:20:52;;;;;;;4.90;1.67;;;10.30;99.90;;;;;;4966332;28;20496;-70
2022/12/28 11:23:21;;;;;;;3.40;1.67;;;10.30;99.90;;;;;;4968394;28;20463;-70
2022/12/28 11:25:50;;;;;;;2.40;1.50;;;10.30;99.90;;;;;;4969548;28;20489;-70
2022/12/28 11:28:19;;;;;;;1.83;1.60;;;10.30;99.90;;;;;;4969524;28;20464;-70
2022/12/28 11:30:47;;;;;;;2.07;1.70;;;10.30;99.90;;;;;;4969526;28;20475;-70
2022/12/28 11:33:34;;;;;;;3.37;1.40;;;10.30;99.90;;;;;;4969885;28;20548;-70
2022/12/28 11:36:02;;;;;;;3.00;1.53;;;10.40;99.90;;;;;;4969391;28;20433;-70
2022/12/28 11:38:39;;;;;;;2.63;1.67;;;10.30;99.90;;;;;;4969465;28;20472;-70
2022/12/28 11:41:10;;;;;;;5.13;2.20;;;10.20;99.90;;;;;;4969032;28;20471;-70
2022/12/28 11:43:51;;;;;;;4.27;1.50;;;10.10;99.90;;;;;;4969563;28;20515;-70
2022/12/28 11:46:39;;;;;;;4.50;1.50;;;10.20;99.90;;;;;;4968795;28;20554;-70
2022/12/28 11:49:21;;;;;;;5.20;1.77;;;10.30;99.90;;;;;;4969152;28;20492;-70
2022/12/28 11:52:08;;;;;;;3.27;1.40;;;10.50;99.90;;;;;;4968864;28;20473;-70
2022/12/28 11:54:50;;;;;;;3.90;1.90;;;10.60;99.90;;;;;;4969108;28;20456;-70
2022/12/28 11:57:33;;;;;;;2.77;2.00;;;10.70;99.90;;;;;;4968370;28;20453;-71
2022/12/28 12:00:32;;;;;;;6.63;1.60;;;10.90;99.90;;;;;;4968675;28;20950;-72
2022/12/28 12:03:01;;;;;;;1.83;1.50;;;10.90;99.90;;;;;;4969483;28;20460;-72
2022/12/28 12:05:51;;;;;;;2.70;1.60;;;10.80;99.90;;;;;;4969409;28;20456;-71
2022/12/28 12:08:41;;;;;;;1.53;1.30;;;10.80;99.90;;;;;;4960209;28;20545;-71
2022/12/28 12:11:29;;;;;;;2.50;1.60;;;10.80;99.90;;;;;;4959510;28;20517;-71
2022/12/28 12:14:00;;;;;;;2.63;1.40;;;10.70;99.90;;;;;;4957937;28;20481;-72
2022/12/28 12:16:33;;;;;;;2.60;1.83;;;10.80;99.90;;;;;;4959306;28;20544;-72
2022/12/28 12:19:05;;;;;;;2.77;1.80;;;10.90;99.90;;;;;;4969182;28;20456;-72
2022/12/28 12:21:37;;;;;;;2.47;1.70;;;11.10;99.90;;;;;;4967384;28;20564;-71
2022/12/28 12:24:25;;;;;;;1.90;1.70;;;11.40;99.90;;;;;;4969228;28;20437;-72
2022/12/28 12:26:58;;;;;;;2.13;1.80;;;11.50;99.90;;;;;;4967905;28;20895;-71
2022/12/28 12:29:34;;;;;;;2.20;1.80;;;11.50;99.90;;;;;;4968849;28;20874;-72
2022/12/28 12:32:03;;;;;;;2.23;1.60;;;11.40;99.90;;;;;;4968655;28;20472;-72
2022/12/28 12:34:39;;;;;;;2.60;2.10;;;11.50;99.90;;;;;;4967809;28;20461;-71
2022/12/28 12:37:43;;;;;;;2.30;1.60;;;11.50;99.90;;;;;;4967418;28;20464;-71
2022/12/28 12:40:32;;;;;;;2.30;1.73;;;11.50;99.90;;;;;;4968558;28;20462;-73
2022/12/28 12:43:17;;;;;;;3.20;1.80;;;11.80;99.90;;;;;;4955501;28;20460;-71
2022/12/28 12:45:53;;;;;;;1.50;1.40;;;11.60;99.90;;;;;;4968303;28;20437;-71
2022/12/28 12:48:42;;;;;;;2.60;1.80;;;11.70;99.90;;;;;;4968019;28;20457;-72
2022/12/28 12:51:21;;;;;;;3.70;1.50;;;11.70;99.90;;;;;;4967742;28;20476;-72
2022/12/28 12:54:03;;;;;;;2.57;1.80;;;11.80;99.90;;;;;;4967804;28;20971;-72
2022/12/28 12:56:43;;;;;;;2.60;1.63;;;11.80;99.90;;;;;;4967613;28;20456;-72
2022/12/28 12:59:29;;;;;;;2.00;1.80;;;11.90;99.90;;;;;;4968153;28;20440;-73
2022/12/28 13:02:08;;;;;;;2.10;1.40;;;11.70;99.90;;;;;;4967598;28;20511;-71
2022/12/28 13:04:36;;;;;;;2.07;1.50;;;11.70;99.90;;;;;;4968251;28;20455;-73
2022/12/28 13:07:06;;;;;;;2.27;1.60;;;11.80;99.90;;;;;;4966659;28;20820;-72
2022/12/28 13:09:34;;;;;;;2.33;1.70;;;12.00;99.90;;;;;;4967876;28;20480;-71
2022/12/28 13:12:02;;;;;;;2.80;1.80;;;12.10;99.90;;;;;;4967858;28;20476;-72
2022/12/28 13:14:29;;;;;;;1.93;1.80;;;12.10;99.90;;;;;;4967688;28;20476;-72
2022/12/28 13:16:59;;;;;;;2.70;1.70;;;12.10;99.90;;;;;;4966066;28;20460;-72
2022/12/28 13:19:28;;;;;;;3.53;1.83;;;12.10;99.90;;;;;;4966216;28;20467;-72
2022/12/28 13:21:57;;;;;;;3.10;1.77;;;12.10;99.90;;;;;;4965081;28;20495;-72
2022/12/28 13:24:27;;;;;;;4.63;1.70;;;12.10;99.90;;;;;;4966390;28;20847;-73
2022/12/28 13:26:55;;;;;;;2.37;1.97;;;12.10;99.90;;;;;;4966986;28;20511;-72
2022/12/28 13:29:24;;;;;;;4.03;1.73;;;12.10;99.90;;;;;;4967741;28;20496;-72
2022/12/28 13:31:51;;;;;;;3.10;1.70;;;12.00;99.90;;;;;;4966997;28;20918;-72
2022/12/28 13:34:23;;;;;;;1.80;1.57;;;12.00;99.90;;;;;;4966905;28;20452;-72
2022/12/28 13:36:52;;;;;;;3.80;1.60;;;11.90;99.90;;;;;;4966736;28;20435;-72
2022/12/28 13:39:20;;;;;;;2.17;1.93;;;11.80;99.90;;;;;;4967076;28;20925;-72
2022/12/28 13:41:53;;;;;;;2.10;1.90;;;11.70;99.90;;;;;;4966881;28;20538;-71
2022/12/28 13:44:26;;;;;;;3.57;1.93;;;11.60;99.90;;;;;;4966778;28;20455;-71
2022/12/28 13:46:58;;;;;;;2.53;2.30;;;11.50;99.90;;;;;;4966037;28;20948;-72
2022/12/28 13:49:28;;;;;;;4.17;2.37;;;11.50;99.90;;;;;;4967307;28;20500;-71
2022/12/28 13:51:55;;;;;;;3.00;1.77;;;11.30;99.90;;;;;;4966931;28;20492;-73
2022/12/28 13:54:23;;;;;;;2.90;2.07;;;11.30;99.90;;;;;;4967086;28;20515;-71
2022/12/28 13:56:52;;;;;;;5.73;2.97;;;11.20;99.90;;;;;;4966067;28;20555;-72
2022/12/28 13:59:20;;;;;;;7.97;3.30;;;11.10;99.90;;;;;;4966722;28;20457;-72
2022/12/28 14:01:50;;;;;;;4.90;2.00;;;11.10;99.90;;;;;;4966409;28;21088;-71
2022/12/28 14:04:22;;;;;;;2.73;1.70;;;11.00;99.90;;;;;;4966650;28;20563;-72
2022/12/28 14:06:50;;;;;;;6.00;2.87;;;11.00;99.90;;;;;;4966116;28;20463;-72
2022/12/28 14:09:20;;;;;;;2.90;1.70;;;10.90;99.90;;;;;;4966354;28;20456;-72
2022/12/28 14:11:47;;;;;;;2.03;1.53;;;10.70;99.90;;;;;;4966810;28;20473;-71
2022/12/28 14:14:15;;;;;;;2.63;1.70;;;10.70;99.90;;;;;;4966442;28;20456;-71
2022/12/28 14:16:43;;;;;;;3.17;2.23;;;10.70;99.90;;;;;;4966109;28;20467;-74
2022/12/28 14:19:11;;;;;;;3.00;2.37;;;10.70;99.90;;;;;;4966220;28;20471;-71
2022/12/28 14:21:40;;;;;;;4.20;2.57;;;10.70;99.90;;;;;;4966343;28;20932;-65
2022/12/28 14:24:11;;;;;;;3.13;1.93;;;10.70;99.90;;;;;;4965977;28;20940;-64
2022/12/28 14:26:40;;;;;;;2.53;1.70;;;10.60;99.90;;;;;;4965749;28;20595;-64
2022/12/28 14:29:12;;;;;;;7.33;1.60;;;10.60;99.90;;;;;;4966379;28;20456;-65
2022/12/28 14:31:40;;;;;;;2.33;1.50;;;10.50;99.90;;;;;;4966248;28;20476;-72
2022/12/28 14:34:18;;;;;;;3.23;1.70;;;10.40;99.90;;;;;;4965877;28;20452;-72
2022/12/28 14:36:50;;;;;;;2.33;1.77;;;10.40;99.90;;;;;;4967127;28;20816;-72
2022/12/28 14:39:25;;;;;;;2.00;1.40;;;10.40;99.90;;;;;;4968103;28;20444;-70
2022/12/28 14:41:53;;;;;;;3.90;1.97;;;10.40;99.90;;;;;;4968172;28;21000;-71
2022/12/28 14:44:26;;;;;;;3.40;1.90;;;10.30;99.90;;;;;;4966757;28;20834;-71
2022/12/28 14:46:53;;;;;;;2.90;1.93;;;10.20;99.90;;;;;;4968097;28;20809;-71
2022/12/28 14:49:35;;;;;;;1.80;1.70;;;10.30;99.90;;;;;;4968351;28;20465;-70
2022/12/28 14:52:31;;;;;;;2.57;1.80;;;10.20;99.90;;;;;;4968179;28;20563;-71
2022/12/28 14:54:59;;;;;;;3.60;2.13;;;10.20;99.90;;;;;;4968231;28;20448;-71
2022/12/28 14:57:32;;;;;;;2.13;1.60;;;10.10;99.90;;;;;;4970948;28;20983;-71
2022/12/28 15:00:04;;;;;;;3.20;2.20;;;10.10;99.90;;;;;;4971486;28;20429;-70
2022/12/28 15:02:40;;;;;;;3.47;3.17;;;10.10;99.90;;;;;;4970445;28;20495;-71
2022/12/28 15:05:34;;;;;;;2.37;1.93;;;10.10;99.90;;;;;;4971870;28;20538;-71
2022/12/28 15:08:01;;;;;;;2.57;2.20;;;10.10;99.90;;;;;;4971323;28;20456;-69
2022/12/28 15:10:30;;;;;;;5.50;1.90;;;10.10;99.90;;;;;;4972110;28;20499;-69
2022/12/28 15:12:56;;;;;;;2.80;1.70;;;10.00;99.90;;;;;;4972889;28;20441;-70
2022/12/28 15:15:23;;;;;;;2.00;1.80;;;10.00;99.90;;;;;;4972467;28;20460;-70
2022/12/28 15:17:50;;;;;;;2.87;2.00;;;10.00;99.90;;;;;;4972522;28;20452;-70
2022/12/28 15:20:17;;;;;;;4.10;1.70;;;9.90;99.90;;;;;;4972812;28;20944;-72
2022/12/28 15:22:44;;;;;;;2.10;1.77;;;9.90;99.90;;;;;;4972995;28;20468;-70
2022/12/28 15:25:11;;;;;;;2.07;1.73;;;9.90;99.90;;;;;;4972549;28;20459;-70
2022/12/28 15:27:39;;;;;;;2.63;1.70;;;9.90;99.90;;;;;;4972720;28;20464;-70
2022/12/28 15:30:08;;;;;;;2.00;1.70;;;9.90;99.90;;;;;;4972546;28;20496;-70
2022/12/28 15:32:35;;;;;;;3.00;2.00;;;9.90;99.90;;;;;;4972531;28;20480;-70
2022/12/28 15:35:02;;;;;;;2.83;1.83;;;9.90;99.90;;;;;;4971808;28;20463;-70
2022/12/28 15:37:28;;;;;;;1.60;1.50;;;9.90;99.90;;;;;;4971998;28;20493;-70
2022/12/28 15:39:55;;;;;;;3.43;1.93;;;9.80;99.90;;;;;;4971957;28;20452;-70
2022/12/28 15:42:22;;;;;;;1.70;1.60;;;9.90;99.90;;;;;;4971004;28;20476;-70
2022/12/28 15:44:51;;;;;;;3.65;1.80;;;9.80;99.90;;;;;;4971010;28;20442;-70
2022/12/28 15:47:19;;;;;;;1.70;1.60;;;10.10;99.90;;;;;;4972040;28;20295;-70
2022/12/28 15:49:46;;;;;;;3.20;1.73;;;10.10;99.90;;;;;;4972335;28;20543;-70
2022/12/28 15:52:13;;;;;;;3.60;2.03;;;10.10;99.90;;;;;;4971904;28;20913;-70
2022/12/28 15:54:40;;;;;;;4.13;2.10;;;10.00;99.90;;;;;;4972049;28;20453;-70
2022/12/28 15:57:09;;;;;;;3.50;2.10;;;9.90;99.90;;;;;;4971511;28;20468;-70
2022/12/28 15:59:36;;;;;;;2.23;2.00;;;9.80;99.90;;;;;;4971689;28;20950;-70
2022/12/28 16:02:04;;;;;;;3.40;1.87;;;9.80;99.90;;;;;;4971570;28;20490;-70
2022/12/28 16:04:31;;;;;;;2.60;1.90;;;9.70;99.90;;;;;;4971851;28;20459;-69
2022/12/28 16:06:58;;;;;;;2.47;1.70;;;9.70;99.90;;;;;;4969308;28;20461;-74
2022/12/28 16:09:24;;;;;;;2.30;1.83;;;9.70;99.90;;;;;;4968182;28;20890;-74
2022/12/28 16:11:51;;;;;;;5.00;2.27;;;9.70;99.90;;;;;;4968811;28;20520;-73
2022/12/28 16:14:18;;;;;;;2.00;1.50;;;9.60;99.90;;;;;;4969014;28;20562;-74
2022/12/28 16:16:45;;;;;;;2.83;2.00;;;9.60;99.90;;;;;;4968283;28;20456;-74
2022/12/28 16:19:15;;;;;;;4.20;3.03;;;9.50;99.90;;;;;;4968888;28;20448;-74
2022/12/28 16:21:42;;;;;;;2.77;2.57;;;9.50;99.90;;;;;;4969030;28;20484;-71
2022/12/28 16:24:11;;;;;;;3.40;2.83;;;9.50;99.90;;;;;;4968662;28;20452;-71
2022/12/28 16:26:38;;;;;;;3.63;2.33;;;9.50;99.90;;;;;;4968202;28;20923;-71
2022/12/28 16:29:05;;;;;;;2.50;2.30;;;9.50;99.90;;;;;;4969046;28;20448;-71
2022/12/28 16:31:34;;;;;;;3.90;2.50;;;9.60;99.90;;;;;;4968764;28;20582;-71
2022/12/28 16:34:02;;;;;;;4.13;2.90;;;9.60;99.90;;;;;;4968599;28;20747;-71
2022/12/28 16:36:31;;;;;;;5.40;2.67;;;9.60;99.90;;;;;;4968033;28;20465;-71
2022/12/28 16:38:59;;;;;;;4.10;2.63;;;9.60;99.90;;;;;;4968811;28;20452;-62
2022/12/28 16:41:26;;;;;;;2.80;2.50;;;9.50;99.90;;;;;;4970303;28;20484;-62
2022/12/28 16:44:01;;;;;;;5.13;2.90;;;9.50;99.90;;;;;;4968999;28;20454;-62
2022/12/28 16:46:28;;;;;;;5.10;3.40;;;9.50;99.90;;;;;;4969519;28;20447;-61
2022/12/28 16:48:55;;;;;;;4.20;2.63;;;9.50;99.90;;;;;;4968648;28;20484;-72
2022/12/28 16:51:22;;;;;;;3.37;2.43;;;9.50;99.90;;;;;;4968329;28;20503;-72
2022/12/28 16:53:50;;;;;;;3.63;2.37;;;9.40;99.90;;;;;;4968101;28;20528;-72
2022/12/28 16:56:16;;;;;;;5.50;3.33;;;9.40;99.90;;;;;;4967400;28;20457;-72
2022/12/28 16:58:43;;;;;;;7.70;4.63;;;9.40;99.90;;;;;;4967941;28;20453;-72
2022/12/28 17:01:10;;;;;;;14.53;10.10;;;9.40;99.90;;;;;;4967716;28;20484;-73
2022/12/28 17:03:39;;;;;;;6.07;4.47;;;9.50;99.90;;;;;;4967897;28;20456;-72
2022/12/28 17:06:07;;;;;;;4.27;3.20;;;9.40;99.90;;;;;;4967007;28;20924;-73
2022/12/28 17:08:34;;;;;;;5.60;2.83;;;9.40;99.90;;;;;;4967918;28;20460;-72
2022/12/28 17:11:07;;;;;;;3.40;2.40;;;9.40;99.90;;;;;;4967732;28;20504;-72
2022/12/28 17:13:34;;;;;;;3.13;2.17;;;9.40;99.90;;;;;;4967917;28;20466;-72
2022/12/28 17:16:02;;;;;;;3.00;2.10;;;9.40;99.90;;;;;;4967315;28;20468;-72
2022/12/28 17:18:28;;;;;;;5.57;2.07;;;9.40;99.90;;;;;;4967787;28;20464;-73
2022/12/28 17:20:55;;;;;;;3.80;2.27;;;9.40;99.90;;;;;;4966387;28;20479;-72
2022/12/28 17:23:23;;;;;;;3.37;2.57;;;9.40;99.90;;;;;;4967736;28;20464;-72
2022/12/28 17:25:52;;;;;;;3.63;2.77;;;9.40;99.90;;;;;;4967790;28;20456;-72
2022/12/28 17:28:20;;;;;;;4.83;3.87;;;9.40;99.90;;;;;;4967551;28;20441;-73
2022/12/28 17:30:47;;;;;;;4.97;3.13;;;9.40;99.90;;;;;;4967368;28;21008;-73
2022/12/28 17:33:15;;;;;;;4.27;3.23;;;9.40;99.90;;;;;;4967162;28;20460;-73
2022/12/28 17:35:42;;;;;;;6.27;4.33;;;9.30;99.90;;;;;;4967258;28;21097;-73
2022/12/28 17:38:09;;;;;;;5.90;3.60;;;9.30;99.90;;;;;;4966877;28;20451;-73
2022/12/28 17:40:39;;;;;;;6.67;3.93;;;9.30;99.90;;;;;;4967296;28;20989;-73
2022/12/28 17:43:06;;;;;;;9.20;5.60;;;9.30;99.90;;;;;;4965901;28;20500;-72
2022/12/28 17:45:36;;;;;;;9.50;5.70;;;9.30;99.90;;;;;;4967963;28;20548;-76
2022/12/28 17:48:04;;;;;;;20.53;11.70;;;9.20;99.90;;;;;;4967187;28;20961;-76
2022/12/28 17:50:31;;;;;;;20.50;12.10;;;9.20;99.90;;;;;;4967778;28;20483;-76
2022/12/28 17:52:59;;;;;;;22.47;11.20;;;9.20;99.90;;;;;;4968298;28;20459;-77
2022/12/28 17:55:27;;;;;;;7.60;3.80;;;9.20;99.90;;;;;;4968171;28;20868;-76
2022/12/28 17:57:54;;;;;;;5.80;2.87;;;9.10;99.90;;;;;;4967359;28;20456;-76
2022/12/28 18:00:21;;;;;;;4.27;3.17;;;9.20;99.90;;;;;;4967806;28;20563;-76
2022/12/28 18:02:49;;;;;;;4.03;3.00;;;9.10;99.90;;;;;;4968071;28;20460;-76
2022/12/28 18:05:16;;;;;;;4.83;3.47;;;9.10;99.90;;;;;;4968456;28;20456;-76
2022/12/28 18:07:42;;;;;;;4.30;2.67;;;9.00;99.90;;;;;;4968188;28;20462;-76
2022/12/28 18:10:09;;;;;;;4.07;2.40;;;9.00;99.90;;;;;;4967915;28;20448;-76
2022/12/28 18:12:37;;;;;;;3.50;2.67;;;9.00;99.90;;;;;;4966914;28;21134;-76
2022/12/28 18:15:05;;;;;;;4.30;2.70;;;9.00;99.90;;;;;;4951611;28;20454;-76
2022/12/28 18:17:32;;;;;;;4.37;3.07;;;9.00;99.90;;;;;;4947369;28;20473;-76